Steveston Lifeboat — VOQQ — position and weather

sailwx.info

Track history (hours):
 
Tides and Currents Weather Stations Pressure Air Temp Water Temp Dewpoint Dewpoint Depression Visibility Wind Speed Wind Dir Waves Ship Positions

Steveston Lifeboat

Last reported at 2014-Aug-28 03:12 UTC. Time now 2014-Aug-28 11:25 UTC.
Position N 49°07' W 123°11'.

Length 15 m.

Type: SAR. MMSI: 316012135.

Date/timePositionNaut miles runAvg speedWind from/ knotsBaromVisibWave heightAir tempDewpointWater temp
2014-Aug-28 03:12N 49°07' W 123°11'0 0.7
2014-Aug-28 02:34N 49°07' W 123°12'2 1.7
2014-Aug-28 01:34N 49°08' W 123°14'2 2.1
2014-Aug-28 00:33N 49°07' W 123°11'3 2.7
2014-Aug-27 23:33N 49°08' W 123°15'6 5.8
2014-Aug-27 22:34N 49°07' W 123°06'4 3.9
2014-Aug-27 21:34N 49°07' W 123°12'1 0.7
2014-Aug-27 20:34N 49°08' W 123°13'1 1.0
2014-Aug-27 19:33N 49°07' W 123°12'0 0.2
2014-Aug-27 18:33N 49°07' W 123°11'0 0.3
2014-Aug-27 17:34N 49°07' W 123°12'3 3.4
2014-Aug-27 16:34N 49°07' W 123°07'5 4.7
2014-Aug-27 15:33N 49°08' W 123°14'2 0.1
2014-Aug-26 12:33N 49°07' W 123°10'0 0.4
2014-Aug-26 11:33N 49°07' W 123°11'0 0.0
2014-Aug-26 10:33N 49°07' W 123°11'3 2.8
2014-Aug-26 09:33N 49°07' W 123°15'0 0.1
2014-Aug-26 08:34N 49°07' W 123°15'0 0.0
2014-Aug-26 07:33N 49°07' W 123°15'7 7.4
2014-Aug-26 06:34N 49°07' W 123°04'6 5.6
2014-Aug-26 05:33N 49°08' W 123°13'0 0.1
2014-Aug-26 04:33N 49°08' W 123°13'0 0.4
2014-Aug-26 03:33N 49°08' W 123°12'2 1.8
2014-Aug-26 02:33N 49°07' W 123°10'2 1.5
2014-Aug-26 01:34N 49°07' W 123°12'8 7.8
2014-Aug-26 00:33N 49°09' W 123°00'0 0.0
2014-Aug-25 23:33N 49°09' W 123°00'3 2.5
2014-Aug-25 22:33N 49°08' W 123°04'2 1.6
2014-Aug-25 21:33N 49°07' W 123°06'1 1.3
2014-Aug-25 20:33N 49°08' W 123°04'4 4.0
2014-Aug-25 19:33N 49°07' W 123°10'3 3.3
2014-Aug-25 18:33N 49°07' W 123°15'4 4.2
2014-Aug-25 17:33N 49°07' W 123°09'0 0.3
2014-Aug-25 16:34N 49°07' W 123°09'2 2.5
2014-Aug-25 15:33N 49°07' W 123°12'1 0.0
2014-Aug-25 01:34N 49°07' W 123°12'3 2.6
2014-Aug-25 00:33N 49°06' W 123°08'2 1.8
2014-Aug-24 23:33N 49°07' W 123°05'7 7.2
2014-Aug-24 22:33N 49°07' W 123°16'  
2014-Aug-22 03:34N 49°07' W 123°12'1 0.0
2014-Aug-20 02:28N 49°07' W 123°11'1 0.7
2014-Aug-20 01:33N 49°07' W 123°11'3 3.1
2014-Aug-20 00:33N 49°07' W 123°06'3 2.6
2014-Aug-19 23:33N 49°07' W 123°10'4 3.8
2014-Aug-19 22:33N 49°07' W 123°16'0 0.1
2014-Aug-19 21:33N 49°07' W 123°15'1 1.4
2014-Aug-19 20:34N 49°08' W 123°13'1 1.5
2014-Aug-19 19:33N 49°07' W 123°11'3 2.7
2014-Aug-19 18:34N 49°07' W 123°07'3 0.1
2014-Aug-18 03:19N 49°07' W 123°11'  
Track history (hours):
 
Tides and Currents Weather Stations Pressure Air Temp Water Temp Dewpoint Dewpoint Depression Visibility Wind Speed Wind Dir Waves Ship Positions

Steveston Lifeboat

Last reported at 2014-Aug-28 03:12 UTC. Time now 2014-Aug-28 11:25 UTC.
Position N 49°07' W 123°11'.

Length 15 m.

Type: SAR. MMSI: 316012135.

Date/timePositionNaut miles runAvg speedWind from/ knotsBaromVisibWave heightAir tempDewpointWater temp
2014-Aug-28 03:12N 49°07' W 123°11'0 0.7
2014-Aug-28 02:34N 49°07' W 123°12'2 1.7
2014-Aug-28 01:34N 49°08' W 123°14'2 2.1
2014-Aug-28 00:33N 49°07' W 123°11'3 2.7
2014-Aug-27 23:33N 49°08' W 123°15'6 5.8
2014-Aug-27 22:34N 49°07' W 123°06'4 3.9
2014-Aug-27 21:34N 49°07' W 123°12'1 0.7
2014-Aug-27 20:34N 49°08' W 123°13'1 1.0
2014-Aug-27 19:33N 49°07' W 123°12'0 0.2
2014-Aug-27 18:33N 49°07' W 123°11'0 0.3
2014-Aug-27 17:34N 49°07' W 123°12'3 3.4
2014-Aug-27 16:34N 49°07' W 123°07'5 4.7
2014-Aug-27 15:33N 49°08' W 123°14'2 0.1
2014-Aug-26 12:33N 49°07' W 123°10'0 0.4
2014-Aug-26 11:33N 49°07' W 123°11'0 0.0
2014-Aug-26 10:33N 49°07' W 123°11'3 2.8
2014-Aug-26 09:33N 49°07' W 123°15'0 0.1
2014-Aug-26 08:34N 49°07' W 123°15'0 0.0
2014-Aug-26 07:33N 49°07' W 123°15'7 7.4
2014-Aug-26 06:34N 49°07' W 123°04'6 5.6
2014-Aug-26 05:33N 49°08' W 123°13'0 0.1
2014-Aug-26 04:33N 49°08' W 123°13'0 0.4
2014-Aug-26 03:33N 49°08' W 123°12'2 1.8
2014-Aug-26 02:33N 49°07' W 123°10'2 1.5
2014-Aug-26 01:34N 49°07' W 123°12'8 7.8
2014-Aug-26 00:33N 49°09' W 123°00'0 0.0
2014-Aug-25 23:33N 49°09' W 123°00'3 2.5
2014-Aug-25 22:33N 49°08' W 123°04'2 1.6
2014-Aug-25 21:33N 49°07' W 123°06'1 1.3
2014-Aug-25 20:33N 49°08' W 123°04'4 4.0
2014-Aug-25 19:33N 49°07' W 123°10'3 3.3
2014-Aug-25 18:33N 49°07' W 123°15'4 4.2
2014-Aug-25 17:33N 49°07' W 123°09'0 0.3
2014-Aug-25 16:34N 49°07' W 123°09'2 2.5
2014-Aug-25 15:33N 49°07' W 123°12'1 0.0
2014-Aug-25 01:34N 49°07' W 123°12'3 2.6
2014-Aug-25 00:33N 49°06' W 123°08'2 1.8
2014-Aug-24 23:33N 49°07' W 123°05'7 7.2
2014-Aug-24 22:33N 49°07' W 123°16'  
2014-Aug-22 03:34N 49°07' W 123°12'1 0.0
2014-Aug-20 02:28N 49°07' W 123°11'1 0.7
2014-Aug-20 01:33N 49°07' W 123°11'3 3.1
2014-Aug-20 00:33N 49°07' W 123°06'3 2.6
2014-Aug-19 23:33N 49°07' W 123°10'4 3.8
2014-Aug-19 22:33N 49°07' W 123°16'0 0.1
2014-Aug-19 21:33N 49°07' W 123°15'1 1.4
2014-Aug-19 20:34N 49°08' W 123°13'1 1.5
2014-Aug-19 19:33N 49°07' W 123°11'3 2.7
2014-Aug-19 18:34N 49°07' W 123°07'3 0.1
2014-Aug-18 03:19N 49°07' W 123°11'  

Dump ship's entire track history